sensor_id;sensor_type;location;lat;lon;timestamp;temperature;humidity
26541;DHT22;14206;50.202;10.948;2023-08-08T00:01:58;13.10;96.60
26541;DHT22;14206;50.202;10.948;2023-08-08T00:04:25;13.20;96.60
26541;DHT22;14206;50.202;10.948;2023-08-08T00:06:52;13.20;96.60
26541;DHT22;14206;50.202;10.948;2023-08-08T00:09:19;13.20;96.60
26541;DHT22;14206;50.202;10.948;2023-08-08T00:11:46;13.10;96.60
26541;DHT22;14206;50.202;10.948;2023-08-08T00:14:13;13.10;96.60
26541;DHT22;14206;50.202;10.948;2023-08-08T00:16:39;13.10;96.60
26541;DHT22;14206;50.202;10.948;2023-08-08T00:19:06;13.10;96.60
26541;DHT22;14206;50.202;10.948;2023-08-08T00:21:33;13.10;96.60
26541;DHT22;14206;50.202;10.948;2023-08-08T00:24:00;13.10;96.60
26541;DHT22;14206;50.202;10.948;2023-08-08T00:26:27;13.10;96.60
26541;DHT22;14206;50.202;10.948;2023-08-08T00:28:54;13.00;96.60
26541;DHT22;14206;50.202;10.948;2023-08-08T00:31:20;13.00;96.60
26541;DHT22;14206;50.202;10.948;2023-08-08T00:33:47;13.00;96.60
26541;DHT22;14206;50.202;10.948;2023-08-08T00:36:14;13.00;96.60
26541;DHT22;14206;50.202;10.948;2023-08-08T00:38:41;13.00;96.60
26541;DHT22;14206;50.202;10.948;2023-08-08T00:41:08;12.90;96.60
26541;DHT22;14206;50.202;10.948;2023-08-08T00:43:35;12.80;96.60
26541;DHT22;14206;50.202;10.948;2023-08-08T00:46:01;12.80;96.60
26541;DHT22;14206;50.202;10.948;2023-08-08T00:48:28;12.80;96.60
26541;DHT22;14206;50.202;10.948;2023-08-08T00:50:55;12.70;96.60
26541;DHT22;14206;50.202;10.948;2023-08-08T00:53:23;12.70;96.60
26541;DHT22;14206;50.202;10.948;2023-08-08T00:55:54;12.70;96.60
26541;DHT22;14206;50.202;10.948;2023-08-08T00:58:21;12.70;96.60
26541;DHT22;14206;50.202;10.948;2023-08-08T01:00:47;12.60;96.60
26541;DHT22;14206;50.202;10.948;2023-08-08T01:03:15;12.60;96.60
26541;DHT22;14206;50.202;10.948;2023-08-08T01:05:48;12.60;96.60
26541;DHT22;14206;50.202;10.948;2023-08-08T01:08:22;12.60;96.60
26541;DHT22;14206;50.202;10.948;2023-08-08T01:10:52;12.60;96.60
26541;DHT22;14206;50.202;10.948;2023-08-08T01:13:23;12.60;96.60
26541;DHT22;14206;50.202;10.948;2023-08-08T01:15:52;12.50;96.60
26541;DHT22;14206;50.202;10.948;2023-08-08T01:18:20;12.50;96.60
26541;DHT22;14206;50.202;10.948;2023-08-08T01:20:48;12.50;96.60
26541;DHT22;14206;50.202;10.948;2023-08-08T01:23:26;12.50;96.60
26541;DHT22;14206;50.202;10.948;2023-08-08T01:25:56;12.50;96.60
26541;DHT22;14206;50.202;10.948;2023-08-08T01:28:26;12.50;96.60
26541;DHT22;14206;50.202;10.948;2023-08-08T01:30:52;12.50;96.60
26541;DHT22;14206;50.202;10.948;2023-08-08T01:33:20;12.50;96.60
26541;DHT22;14206;50.202;10.948;2023-08-08T01:35:58;12.50;96.60
26541;DHT22;14206;50.202;10.948;2023-08-08T01:38:33;12.40;96.60
26541;DHT22;14206;50.202;10.948;2023-08-08T01:41:06;12.30;96.60
26541;DHT22;14206;50.202;10.948;2023-08-08T01:43:34;12.30;96.60
26541;DHT22;14206;50.202;10.948;2023-08-08T01:46:04;12.30;96.60
26541;DHT22;14206;50.202;10.948;2023-08-08T01:48:31;12.20;96.60
26541;DHT22;14206;50.202;10.948;2023-08-08T01:50:58;12.20;96.60
26541;DHT22;14206;50.202;10.948;2023-08-08T01:53:25;12.20;96.60
26541;DHT22;14206;50.202;10.948;2023-08-08T01:55:52;12.20;96.60
26541;DHT22;14206;50.202;10.948;2023-08-08T01:58:19;12.20;96.60
26541;DHT22;14206;50.202;10.948;2023-08-08T02:00:46;12.10;96.60
26541;DHT22;14206;50.202;10.948;2023-08-08T02:03:14;12.10;96.60
26541;DHT22;14206;50.202;10.948;2023-08-08T02:05:42;12.10;96.60
26541;DHT22;14206;50.202;10.948;2023-08-08T02:08:09;12.00;96.60
26541;DHT22;14206;50.202;10.948;2023-08-08T02:10:36;12.00;96.60
26541;DHT22;14206;50.202;10.948;2023-08-08T02:13:03;12.00;96.60
26541;DHT22;14206;50.202;10.948;2023-08-08T02:15:30;12.00;96.60
26541;DHT22;14206;50.202;10.948;2023-08-08T02:17:58;12.00;96.60
26541;DHT22;14206;50.202;10.948;2023-08-08T02:20:25;12.00;96.60
26541;DHT22;14206;50.202;10.948;2023-08-08T02:22:52;12.00;96.60
26541;DHT22;14206;50.202;10.948;2023-08-08T02:25:19;12.00;96.60
26541;DHT22;14206;50.202;10.948;2023-08-08T02:27:46;12.00;96.60
26541;DHT22;14206;50.202;10.948;2023-08-08T02:30:13;12.00;96.60
26541;DHT22;14206;50.202;10.948;2023-08-08T02:32:40;12.00;96.60
26541;DHT22;14206;50.202;10.948;2023-08-08T02:35:08;12.00;96.60
26541;DHT22;14206;50.202;10.948;2023-08-08T02:37:35;12.00;96.60
26541;DHT22;14206;50.202;10.948;2023-08-08T02:40:01;12.00;96.60
26541;DHT22;14206;50.202;10.948;2023-08-08T02:42:29;12.00;96.60
26541;DHT22;14206;50.202;10.948;2023-08-08T02:44:57;12.10;96.60
26541;DHT22;14206;50.202;10.948;2023-08-08T02:47:24;12.10;96.60
26541;DHT22;14206;50.202;10.948;2023-08-08T02:49:51;12.10;96.60
26541;DHT22;14206;50.202;10.948;2023-08-08T02:52:18;12.20;96.60
26541;DHT22;14206;50.202;10.948;2023-08-08T02:54:45;12.20;96.60
26541;DHT22;14206;50.202;10.948;2023-08-08T02:57:13;12.20;96.60
26541;DHT22;14206;50.202;10.948;2023-08-08T02:59:40;12.20;96.60
26541;DHT22;14206;50.202;10.948;2023-08-08T03:02:07;12.20;96.60
26541;DHT22;14206;50.202;10.948;2023-08-08T03:04:36;12.30;96.60
26541;DHT22;14206;50.202;10.948;2023-08-08T03:07:05;12.30;96.60
26541;DHT22;14206;50.202;10.948;2023-08-08T03:09:35;12.30;96.60
26541;DHT22;14206;50.202;10.948;2023-08-08T03:12:02;12.40;96.60
26541;DHT22;14206;50.202;10.948;2023-08-08T03:14:31;12.40;96.60
26541;DHT22;14206;50.202;10.948;2023-08-08T03:16:59;12.40;96.60
26541;DHT22;14206;50.202;10.948;2023-08-08T03:19:27;12.40;96.60
26541;DHT22;14206;50.202;10.948;2023-08-08T03:21:56;12.40;96.60
26541;DHT22;14206;50.202;10.948;2023-08-08T03:24:24;12.30;96.60
26541;DHT22;14206;50.202;10.948;2023-08-08T03:26:51;12.40;96.60
26541;DHT22;14206;50.202;10.948;2023-08-08T03:29:18;12.40;96.60
26541;DHT22;14206;50.202;10.948;2023-08-08T03:31:47;12.40;96.60
26541;DHT22;14206;50.202;10.948;2023-08-08T03:34:15;12.40;96.60
26541;DHT22;14206;50.202;10.948;2023-08-08T03:36:43;12.30;96.60
26541;DHT22;14206;50.202;10.948;2023-08-08T03:39:10;12.30;96.60
26541;DHT22;14206;50.202;10.948;2023-08-08T03:41:37;12.30;96.60
26541;DHT22;14206;50.202;10.948;2023-08-08T03:44:04;12.30;96.60
26541;DHT22;14206;50.202;10.948;2023-08-08T03:46:31;12.30;96.60
26541;DHT22;14206;50.202;10.948;2023-08-08T03:49:00;12.40;96.60
26541;DHT22;14206;50.202;10.948;2023-08-08T03:51:27;12.40;96.60
26541;DHT22;14206;50.202;10.948;2023-08-08T03:53:55;12.50;96.60
26541;DHT22;14206;50.202;10.948;2023-08-08T03:56:22;12.50;96.60
26541;DHT22;14206;50.202;10.948;2023-08-08T03:58:49;12.50;96.60
26541;DHT22;14206;50.202;10.948;2023-08-08T04:01:16;12.50;96.60
26541;DHT22;14206;50.202;10.948;2023-08-08T04:03:43;12.50;96.60
26541;DHT22;14206;50.202;10.948;2023-08-08T04:06:10;12.40;96.60
26541;DHT22;14206;50.202;10.948;2023-08-08T04:08:37;12.40;96.60
26541;DHT22;14206;50.202;10.948;2023-08-08T04:11:07;12.30;96.60
26541;DHT22;14206;50.202;10.948;2023-08-08T04:13:34;12.20;96.60
26541;DHT22;14206;50.202;10.948;2023-08-08T04:16:01;12.20;96.60
26541;DHT22;14206;50.202;10.948;2023-08-08T04:18:28;12.20;96.60
26541;DHT22;14206;50.202;10.948;2023-08-08T04:20:55;12.20;96.60
26541;DHT22;14206;50.202;10.948;2023-08-08T04:23:22;12.10;96.60
26541;DHT22;14206;50.202;10.948;2023-08-08T04:25:53;12.20;96.60
26541;DHT22;14206;50.202;10.948;2023-08-08T04:28:20;12.20;96.60
26541;DHT22;14206;50.202;10.948;2023-08-08T04:30:47;12.30;96.60
26541;DHT22;14206;50.202;10.948;2023-08-08T04:33:14;12.30;96.60
26541;DHT22;14206;50.202;10.948;2023-08-08T04:35:42;12.40;96.60
26541;DHT22;14206;50.202;10.948;2023-08-08T04:38:09;12.40;96.60
26541;DHT22;14206;50.202;10.948;2023-08-08T04:40:36;12.40;96.60
26541;DHT22;14206;50.202;10.948;2023-08-08T04:43:05;12.40;96.60
26541;DHT22;14206;50.202;10.948;2023-08-08T04:45:31;12.40;96.60
26541;DHT22;14206;50.202;10.948;2023-08-08T04:47:58;12.40;96.60
26541;DHT22;14206;50.202;10.948;2023-08-08T04:50:25;12.30;96.60
26541;DHT22;14206;50.202;10.948;2023-08-08T04:52:52;12.40;96.60
26541;DHT22;14206;50.202;10.948;2023-08-08T04:55:19;12.40;96.60
26541;DHT22;14206;50.202;10.948;2023-08-08T04:57:46;12.50;96.60
26541;DHT22;14206;50.202;10.948;2023-08-08T05:00:14;12.50;96.60
26541;DHT22;14206;50.202;10.948;2023-08-08T05:02:41;12.40;96.60
26541;DHT22;14206;50.202;10.948;2023-08-08T05:05:08;12.40;96.60
26541;DHT22;14206;50.202;10.948;2023-08-08T05:07:35;12.40;96.60
26541;DHT22;14206;50.202;10.948;2023-08-08T05:10:04;12.30;96.60
26541;DHT22;14206;50.202;10.948;2023-08-08T05:12:31;12.40;96.60
26541;DHT22;14206;50.202;10.948;2023-08-08T05:14:58;12.50;96.60
26541;DHT22;14206;50.202;10.948;2023-08-08T05:17:25;12.50;96.60
26541;DHT22;14206;50.202;10.948;2023-08-08T05:19:52;12.60;96.60
26541;DHT22;14206;50.202;10.948;2023-08-08T05:22:20;12.70;96.60
26541;DHT22;14206;50.202;10.948;2023-08-08T05:24:46;12.70;96.60
26541;DHT22;14206;50.202;10.948;2023-08-08T05:27:13;12.80;96.60
26541;DHT22;14206;50.202;10.948;2023-08-08T05:29:40;12.80;96.60
26541;DHT22;14206;50.202;10.948;2023-08-08T05:32:08;12.90;96.60
26541;DHT22;14206;50.202;10.948;2023-08-08T05:34:34;13.00;96.60
26541;DHT22;14206;50.202;10.948;2023-08-08T05:37:01;13.10;96.60
26541;DHT22;14206;50.202;10.948;2023-08-08T05:39:43;13.10;96.60
26541;DHT22;14206;50.202;10.948;2023-08-08T05:42:10;13.20;96.60
26541;DHT22;14206;50.202;10.948;2023-08-08T05:44:38;13.30;96.60
26541;DHT22;14206;50.202;10.948;2023-08-08T05:47:05;13.40;96.60
26541;DHT22;14206;50.202;10.948;2023-08-08T05:49:32;13.50;96.60
26541;DHT22;14206;50.202;10.948;2023-08-08T05:51:59;13.50;96.60
26541;DHT22;14206;50.202;10.948;2023-08-08T05:54:26;13.60;96.60
26541;DHT22;14206;50.202;10.948;2023-08-08T05:56:54;13.70;96.60
26541;DHT22;14206;50.202;10.948;2023-08-08T05:59:21;13.70;96.60
26541;DHT22;14206;50.202;10.948;2023-08-08T06:01:48;13.80;96.60
26541;DHT22;14206;50.202;10.948;2023-08-08T06:04:14;13.80;96.60
26541;DHT22;14206;50.202;10.948;2023-08-08T06:06:41;13.90;96.60
26541;DHT22;14206;50.202;10.948;2023-08-08T06:09:08;14.00;96.60
26541;DHT22;14206;50.202;10.948;2023-08-08T06:11:35;14.10;96.60
26541;DHT22;14206;50.202;10.948;2023-08-08T06:14:02;14.20;96.60
26541;DHT22;14206;50.202;10.948;2023-08-08T06:16:29;14.30;96.60
26541;DHT22;14206;50.202;10.948;2023-08-08T06:18:56;14.30;96.60
26541;DHT22;14206;50.202;10.948;2023-08-08T06:21:23;14.40;96.60
26541;DHT22;14206;50.202;10.948;2023-08-08T06:23:57;14.50;96.60
26541;DHT22;14206;50.202;10.948;2023-08-08T06:26:25;14.60;96.60
26541;DHT22;14206;50.202;10.948;2023-08-08T06:28:52;14.70;96.60
26541;DHT22;14206;50.202;10.948;2023-08-08T06:31:19;14.80;96.60
26541;DHT22;14206;50.202;10.948;2023-08-08T06:33:46;14.90;96.60
26541;DHT22;14206;50.202;10.948;2023-08-08T06:36:13;15.10;96.60
26541;DHT22;14206;50.202;10.948;2023-08-08T06:38:40;15.20;96.60
26541;DHT22;14206;50.202;10.948;2023-08-08T06:41:06;15.30;96.60
26541;DHT22;14206;50.202;10.948;2023-08-08T06:43:35;15.50;96.60
26541;DHT22;14206;50.202;10.948;2023-08-08T06:46:02;15.70;96.20
26541;DHT22;14206;50.202;10.948;2023-08-08T06:48:29;15.80;96.10
26541;DHT22;14206;50.202;10.948;2023-08-08T06:50:56;15.90;96.40
26541;DHT22;14206;50.202;10.948;2023-08-08T06:53:23;16.00;95.60
26541;DHT22;14206;50.202;10.948;2023-08-08T06:55:50;16.10;95.10
26541;DHT22;14206;50.202;10.948;2023-08-08T06:58:17;16.20;95.60
26541;DHT22;14206;50.202;10.948;2023-08-08T07:00:44;16.30;94.30
26541;DHT22;14206;50.202;10.948;2023-08-08T07:03:11;16.40;94.80
26541;DHT22;14206;50.202;10.948;2023-08-08T07:05:38;16.60;94.20
26541;DHT22;14206;50.202;10.948;2023-08-08T07:08:06;16.80;93.60
26541;DHT22;14206;50.202;10.948;2023-08-08T07:10:34;16.90;92.40
26541;DHT22;14206;50.202;10.948;2023-08-08T07:13:02;17.10;92.10
26541;DHT22;14206;50.202;10.948;2023-08-08T07:15:29;17.30;91.10
26541;DHT22;14206;50.202;10.948;2023-08-08T07:17:57;17.40;90.70
26541;DHT22;14206;50.202;10.948;2023-08-08T07:20:24;17.70;90.00
26541;DHT22;14206;50.202;10.948;2023-08-08T07:22:51;17.90;88.80
26541;DHT22;14206;50.202;10.948;2023-08-08T07:25:17;18.20;88.90
26541;DHT22;14206;50.202;10.948;2023-08-08T07:27:44;18.70;86.80
26541;DHT22;14206;50.202;10.948;2023-08-08T07:30:11;19.70;84.90
26541;DHT22;14206;50.202;10.948;2023-08-08T07:32:39;20.80;81.40
26541;DHT22;14206;50.202;10.948;2023-08-08T07:35:06;21.70;76.10
26541;DHT22;14206;50.202;10.948;2023-08-08T07:37:34;22.30;73.70
26541;DHT22;14206;50.202;10.948;2023-08-08T07:40:02;22.80;71.90
26541;DHT22;14206;50.202;10.948;2023-08-08T07:42:30;23.30;71.90
26541;DHT22;14206;50.202;10.948;2023-08-08T07:44:57;23.60;70.00
26541;DHT22;14206;50.202;10.948;2023-08-08T07:47:24;24.10;69.00
26541;DHT22;14206;50.202;10.948;2023-08-08T07:49:51;24.70;69.40
26541;DHT22;14206;50.202;10.948;2023-08-08T07:52:17;25.20;67.20
26541;DHT22;14206;50.202;10.948;2023-08-08T07:54:44;25.40;65.60
26541;DHT22;14206;50.202;10.948;2023-08-08T07:57:11;25.70;66.20
26541;DHT22;14206;50.202;10.948;2023-08-08T07:59:38;26.20;66.20
26541;DHT22;14206;50.202;10.948;2023-08-08T08:02:05;26.80;63.90
26541;DHT22;14206;50.202;10.948;2023-08-08T08:04:33;26.90;62.70
26541;DHT22;14206;50.202;10.948;2023-08-08T08:07:00;27.00;62.50
26541;DHT22;14206;50.202;10.948;2023-08-08T08:09:27;27.50;60.60
26541;DHT22;14206;50.202;10.948;2023-08-08T08:11:54;28.10;60.20
26541;DHT22;14206;50.202;10.948;2023-08-08T08:14:21;28.60;58.30
26541;DHT22;14206;50.202;10.948;2023-08-08T08:16:48;29.10;57.60
26541;DHT22;14206;50.202;10.948;2023-08-08T08:19:15;29.60;56.50
26541;DHT22;14206;50.202;10.948;2023-08-08T08:21:42;29.60;55.90
26541;DHT22;14206;50.202;10.948;2023-08-08T08:24:10;29.80;56.50
26541;DHT22;14206;50.202;10.948;2023-08-08T08:26:36;29.90;54.40
26541;DHT22;14206;50.202;10.948;2023-08-08T08:29:03;30.20;53.90
26541;DHT22;14206;50.202;10.948;2023-08-08T08:31:30;30.30;55.20
26541;DHT22;14206;50.202;10.948;2023-08-08T08:33:57;30.40;56.50
26541;DHT22;14206;50.202;10.948;2023-08-08T08:36:24;29.60;56.00
26541;DHT22;14206;50.202;10.948;2023-08-08T08:38:52;28.90;57.20
26541;DHT22;14206;50.202;10.948;2023-08-08T08:41:20;28.70;56.50
26541;DHT22;14206;50.202;10.948;2023-08-08T08:43:50;28.20;58.10
26541;DHT22;14206;50.202;10.948;2023-08-08T08:46:20;28.20;57.00
26541;DHT22;14206;50.202;10.948;2023-08-08T08:48:49;27.70;56.40
26541;DHT22;14206;50.202;10.948;2023-08-08T08:51:20;26.90;58.70
26541;DHT22;14206;50.202;10.948;2023-08-08T08:53:48;26.00;60.80
26541;DHT22;14206;50.202;10.948;2023-08-08T08:56:15;26.40;62.00
26541;DHT22;14206;50.202;10.948;2023-08-08T08:58:43;26.10;61.70
26541;DHT22;14206;50.202;10.948;2023-08-08T09:01:10;25.80;62.30
26541;DHT22;14206;50.202;10.948;2023-08-08T09:03:38;25.90;61.20
26541;DHT22;14206;50.202;10.948;2023-08-08T09:06:05;26.30;61.50
26541;DHT22;14206;50.202;10.948;2023-08-08T09:08:32;26.00;61.50
26541;DHT22;14206;50.202;10.948;2023-08-08T09:10:59;25.40;61.10
26541;DHT22;14206;50.202;10.948;2023-08-08T09:13:26;26.10;60.80
26541;DHT22;14206;50.202;10.948;2023-08-08T09:15:53;26.00;61.00
26541;DHT22;14206;50.202;10.948;2023-08-08T09:18:23;26.20;59.80
26541;DHT22;14206;50.202;10.948;2023-08-08T09:20:51;25.40;60.20
26541;DHT22;14206;50.202;10.948;2023-08-08T09:23:18;24.50;62.40
26541;DHT22;14206;50.202;10.948;2023-08-08T09:25:45;25.20;62.60
26541;DHT22;14206;50.202;10.948;2023-08-08T09:28:12;26.50;60.70
26541;DHT22;14206;50.202;10.948;2023-08-08T09:30:41;27.80;59.50
26541;DHT22;14206;50.202;10.948;2023-08-08T09:33:08;29.00;55.10
26541;DHT22;14206;50.202;10.948;2023-08-08T09:35:38;29.90;51.60
26541;DHT22;14206;50.202;10.948;2023-08-08T09:38:05;29.80;50.90
26541;DHT22;14206;50.202;10.948;2023-08-08T09:40:32;29.90;52.50
26541;DHT22;14206;50.202;10.948;2023-08-08T09:43:00;29.50;50.60
26541;DHT22;14206;50.202;10.948;2023-08-08T09:45:26;28.70;52.60
26541;DHT22;14206;50.202;10.948;2023-08-08T09:47:53;28.20;53.10
26541;DHT22;14206;50.202;10.948;2023-08-08T09:50:20;28.50;53.20
26541;DHT22;14206;50.202;10.948;2023-08-08T09:52:47;28.80;51.10
26541;DHT22;14206;50.202;10.948;2023-08-08T09:55:14;28.90;50.50
26541;DHT22;14206;50.202;10.948;2023-08-08T09:57:48;28.70;51.30
26541;DHT22;14206;50.202;10.948;2023-08-08T10:00:16;28.90;52.20
26541;DHT22;14206;50.202;10.948;2023-08-08T10:02:44;28.90;51.00
26541;DHT22;14206;50.202;10.948;2023-08-08T10:05:14;28.70;49.70
26541;DHT22;14206;50.202;10.948;2023-08-08T10:07:41;28.40;51.40
26541;DHT22;14206;50.202;10.948;2023-08-08T10:10:09;27.60;50.20
26541;DHT22;14206;50.202;10.948;2023-08-08T10:12:41;26.90;51.00
26541;DHT22;14206;50.202;10.948;2023-08-08T10:15:11;26.50;54.60
26541;DHT22;14206;50.202;10.948;2023-08-08T10:17:39;26.40;54.70
26541;DHT22;14206;50.202;10.948;2023-08-08T10:20:09;26.60;56.60
26541;DHT22;14206;50.202;10.948;2023-08-08T10:22:45;26.50;53.70
26541;DHT22;14206;50.202;10.948;2023-08-08T10:27:46;26.50;53.10
26541;DHT22;14206;50.202;10.948;2023-08-08T10:30:13;26.40;53.80
26541;DHT22;14206;50.202;10.948;2023-08-08T10:32:42;26.70;53.70
26541;DHT22;14206;50.202;10.948;2023-08-08T10:35:10;26.80;52.30
26541;DHT22;14206;50.202;10.948;2023-08-08T10:37:38;26.40;51.70
26541;DHT22;14206;50.202;10.948;2023-08-08T10:40:06;26.80;52.80
26541;DHT22;14206;50.202;10.948;2023-08-08T10:42:45;27.40;51.20
26541;DHT22;14206;50.202;10.948;2023-08-08T10:45:14;27.80;50.90
26541;DHT22;14206;50.202;10.948;2023-08-08T10:47:42;28.30;51.70
26541;DHT22;14206;50.202;10.948;2023-08-08T10:50:22;29.00;51.10
26541;DHT22;14206;50.202;10.948;2023-08-08T10:57:55;27.70;49.70
26541;DHT22;14206;50.202;10.948;2023-08-08T11:00:25;26.70;53.20
26541;DHT22;14206;50.202;10.948;2023-08-08T11:02:53;26.10;53.60
26541;DHT22;14206;50.202;10.948;2023-08-08T11:05:22;26.60;54.60
26541;DHT22;14206;50.202;10.948;2023-08-08T11:07:50;27.30;54.20
26541;DHT22;14206;50.202;10.948;2023-08-08T11:10:18;27.90;51.70
26541;DHT22;14206;50.202;10.948;2023-08-08T11:12:54;28.10;51.00
26541;DHT22;14206;50.202;10.948;2023-08-08T11:15:21;28.00;50.50
26541;DHT22;14206;50.202;10.948;2023-08-08T11:17:49;28.00;48.40
26541;DHT22;14206;50.202;10.948;2023-08-08T11:20:16;28.00;50.10
26541;DHT22;14206;50.202;10.948;2023-08-08T11:22:43;27.60;48.70
26541;DHT22;14206;50.202;10.948;2023-08-08T11:25:10;27.00;50.50
26541;DHT22;14206;50.202;10.948;2023-08-08T11:27:48;26.90;53.40
26541;DHT22;14206;50.202;10.948;2023-08-08T11:30:16;27.50;51.80
26541;DHT22;14206;50.202;10.948;2023-08-08T11:32:43;27.40;50.60
26541;DHT22;14206;50.202;10.948;2023-08-08T11:35:10;26.90;51.80
26541;DHT22;14206;50.202;10.948;2023-08-08T11:37:38;26.40;53.70
26541;DHT22;14206;50.202;10.948;2023-08-08T11:40:06;26.10;54.60
26541;DHT22;14206;50.202;10.948;2023-08-08T11:42:33;26.20;54.00
26541;DHT22;14206;50.202;10.948;2023-08-08T11:45:00;26.30;53.80
26541;DHT22;14206;50.202;10.948;2023-08-08T11:47:28;26.40;53.90
26541;DHT22;14206;50.202;10.948;2023-08-08T11:49:59;26.10;52.90
26541;DHT22;14206;50.202;10.948;2023-08-08T11:52:27;26.10;53.40
26541;DHT22;14206;50.202;10.948;2023-08-08T11:54:54;25.80;54.20
26541;DHT22;14206;50.202;10.948;2023-08-08T11:57:21;25.60;54.60
26541;DHT22;14206;50.202;10.948;2023-08-08T11:59:48;25.50;54.90
26541;DHT22;14206;50.202;10.948;2023-08-08T12:02:16;25.40;54.10
26541;DHT22;14206;50.202;10.948;2023-08-08T12:04:46;25.40;54.10
26541;DHT22;14206;50.202;10.948;2023-08-08T12:07:14;25.20;55.60
26541;DHT22;14206;50.202;10.948;2023-08-08T12:09:41;25.20;54.70
26541;DHT22;14206;50.202;10.948;2023-08-08T12:12:08;25.40;55.60
26541;DHT22;14206;50.202;10.948;2023-08-08T12:14:38;25.30;55.90
26541;DHT22;14206;50.202;10.948;2023-08-08T12:17:17;25.30;55.60
26541;DHT22;14206;50.202;10.948;2023-08-08T12:19:47;25.50;55.90
26541;DHT22;14206;50.202;10.948;2023-08-08T12:22:15;25.40;54.00
26541;DHT22;14206;50.202;10.948;2023-08-08T12:24:42;25.20;54.50
26541;DHT22;14206;50.202;10.948;2023-08-08T12:27:09;24.80;55.40
26541;DHT22;14206;50.202;10.948;2023-08-08T12:29:39;24.50;57.20
26541;DHT22;14206;50.202;10.948;2023-08-08T12:32:06;24.20;56.40
26541;DHT22;14206;50.202;10.948;2023-08-08T12:34:35;23.90;56.30
26541;DHT22;14206;50.202;10.948;2023-08-08T12:37:02;23.70;57.40
26541;DHT22;14206;50.202;10.948;2023-08-08T12:39:29;23.50;56.80
26541;DHT22;14206;50.202;10.948;2023-08-08T12:41:56;23.40;58.20
26541;DHT22;14206;50.202;10.948;2023-08-08T12:44:23;23.40;57.70
26541;DHT22;14206;50.202;10.948;2023-08-08T12:46:50;23.50;59.20
26541;DHT22;14206;50.202;10.948;2023-08-08T12:49:17;23.80;57.00
26541;DHT22;14206;50.202;10.948;2023-08-08T12:51:44;23.60;55.90
26541;DHT22;14206;50.202;10.948;2023-08-08T12:54:11;23.40;56.60
26541;DHT22;14206;50.202;10.948;2023-08-08T12:56:38;23.00;57.70
26541;DHT22;14206;50.202;10.948;2023-08-08T12:59:05;22.80;57.60
26541;DHT22;14206;50.202;10.948;2023-08-08T13:01:32;22.70;58.30
26541;DHT22;14206;50.202;10.948;2023-08-08T13:03:59;22.80;60.10
26541;DHT22;14206;50.202;10.948;2023-08-08T13:06:45;22.90;60.30
26541;DHT22;14206;50.202;10.948;2023-08-08T13:09:12;22.90;59.20
26541;DHT22;14206;50.202;10.948;2023-08-08T13:11:39;22.80;60.20
26541;DHT22;14206;50.202;10.948;2023-08-08T13:14:06;22.70;59.10
26541;DHT22;14206;50.202;10.948;2023-08-08T13:16:33;22.40;59.70
26541;DHT22;14206;50.202;10.948;2023-08-08T13:19:00;22.10;61.40
26541;DHT22;14206;50.202;10.948;2023-08-08T13:21:27;21.80;62.10
26541;DHT22;14206;50.202;10.948;2023-08-08T13:23:54;21.60;62.20
26541;DHT22;14206;50.202;10.948;2023-08-08T13:26:21;21.40;63.20
26541;DHT22;14206;50.202;10.948;2023-08-08T13:28:48;21.50;63.60
26541;DHT22;14206;50.202;10.948;2023-08-08T13:31:16;21.60;64.20
26541;DHT22;14206;50.202;10.948;2023-08-08T13:33:43;21.70;64.00
26541;DHT22;14206;50.202;10.948;2023-08-08T13:36:10;21.60;63.60
26541;DHT22;14206;50.202;10.948;2023-08-08T13:38:37;21.50;63.00
26541;DHT22;14206;50.202;10.948;2023-08-08T13:41:04;21.30;63.50
26541;DHT22;14206;50.202;10.948;2023-08-08T13:43:31;21.20;64.20
26541;DHT22;14206;50.202;10.948;2023-08-08T13:45:58;21.20;63.60
26541;DHT22;14206;50.202;10.948;2023-08-08T13:48:25;21.20;62.40
26541;DHT22;14206;50.202;10.948;2023-08-08T13:50:53;21.10;63.80
26541;DHT22;14206;50.202;10.948;2023-08-08T13:53:19;21.00;63.40
26541;DHT22;14206;50.202;10.948;2023-08-08T13:55:46;20.90;63.90
26541;DHT22;14206;50.202;10.948;2023-08-08T13:58:13;20.80;64.50
26541;DHT22;14206;50.202;10.948;2023-08-08T14:00:40;20.70;65.30
26541;DHT22;14206;50.202;10.948;2023-08-08T14:03:07;20.80;65.20
26541;DHT22;14206;50.202;10.948;2023-08-08T14:05:35;21.00;64.50
26541;DHT22;14206;50.202;10.948;2023-08-08T14:08:04;21.20;63.50
26541;DHT22;14206;50.202;10.948;2023-08-08T14:10:31;21.30;63.00
26541;DHT22;14206;50.202;10.948;2023-08-08T14:12:58;21.30;62.80
26541;DHT22;14206;50.202;10.948;2023-08-08T14:15:25;21.30;63.70
26541;DHT22;14206;50.202;10.948;2023-08-08T14:18:05;21.30;63.80
26541;DHT22;14206;50.202;10.948;2023-08-08T14:20:32;21.30;65.10
26541;DHT22;14206;50.202;10.948;2023-08-08T14:22:59;21.40;63.30
26541;DHT22;14206;50.202;10.948;2023-08-08T14:25:26;21.50;64.80
26541;DHT22;14206;50.202;10.948;2023-08-08T14:27:53;21.30;65.00
26541;DHT22;14206;50.202;10.948;2023-08-08T14:30:20;21.20;65.80
26541;DHT22;14206;50.202;10.948;2023-08-08T14:32:48;21.10;65.70
26541;DHT22;14206;50.202;10.948;2023-08-08T14:35:14;21.00;66.10
26541;DHT22;14206;50.202;10.948;2023-08-08T14:37:41;21.00;66.20
26541;DHT22;14206;50.202;10.948;2023-08-08T14:40:09;20.90;65.50
26541;DHT22;14206;50.202;10.948;2023-08-08T14:42:36;21.00;65.60
26541;DHT22;14206;50.202;10.948;2023-08-08T14:45:03;21.20;64.40
26541;DHT22;14206;50.202;10.948;2023-08-08T14:47:30;21.30;65.00
26541;DHT22;14206;50.202;10.948;2023-08-08T14:49:57;21.30;63.80
26541;DHT22;14206;50.202;10.948;2023-08-08T14:52:24;21.40;63.30
26541;DHT22;14206;50.202;10.948;2023-08-08T14:54:53;21.40;63.90
26541;DHT22;14206;50.202;10.948;2023-08-08T14:57:19;21.30;64.20
26541;DHT22;14206;50.202;10.948;2023-08-08T14:59:46;21.20;65.00
26541;DHT22;14206;50.202;10.948;2023-08-08T15:02:14;21.10;64.30
26541;DHT22;14206;50.202;10.948;2023-08-08T15:04:41;21.10;64.80
26541;DHT22;14206;50.202;10.948;2023-08-08T15:07:07;21.00;65.20
26541;DHT22;14206;50.202;10.948;2023-08-08T15:09:34;20.90;65.10
26541;DHT22;14206;50.202;10.948;2023-08-08T15:12:01;20.90;65.60
26541;DHT22;14206;50.202;10.948;2023-08-08T15:14:28;20.90;65.80
26541;DHT22;14206;50.202;10.948;2023-08-08T15:16:55;20.70;65.10
26541;DHT22;14206;50.202;10.948;2023-08-08T15:19:23;20.60;65.80
26541;DHT22;14206;50.202;10.948;2023-08-08T15:21:50;20.50;65.90
26541;DHT22;14206;50.202;10.948;2023-08-08T15:24:17;20.40;66.50
26541;DHT22;14206;50.202;10.948;2023-08-08T15:26:44;20.40;66.50